Pagina principale
METAR-TAF:

METAR-TAF

Aeroporti :

Aigen im Ennstal, Austria

latitudine: 47-32N, longitudine: 014-08E, altezza: 638 m

METAR: mancante

Ora: 12:31 (10:31 UTC)

Previsione

Il bollettino è stato emesso 2 ore e 16 minuti fa, alle 08:15 UTC
Previsione valida dal 21 alle 09 UTC al 21 alle 18 UTC
Vento 4 kt da ovest/sud-ovest
Visibilità 10 km o più
Poco nuvoloso ad un'altezza di 1000 ft
Nubi sparse ad un'altezza di 2500 ft
Nuvoloso ad un'altezza di 5000 ft
Temporaneamente
dal 21 alle 09 UTC al 21 alle 15 UTC
Visibilità: 8000 m
Poco nuvoloso ad un'altezza di 500 ft
Nubi sparse ad un'altezza di 2000 ft
Nuvoloso ad un'altezza di 4000 ft
rovesci di pioggia
Temporaneamente
dal 21 alle 11 UTC al 21 alle 18 UTC
Vento 10 kt da ovest/sud-ovest
Nubi sparse ad un'altezza di 3000 ft
Nubi sparse ad un'altezza di 5000 ft

TAF: LOXA 210815Z 2109/2118 25004KT 9999 FEW010 SCT025 BKN050 TEMPO 2109/2115 8000 -SHRA FEW005 SCT020 BKN040 TEMPO 2111/2118 24010KT SCT030 SCT050

Osservazioni e previsioni meteorologiche di più di 4000 aeroporti (messaggi METAR e TAF).

Le stazioni disponibili sono rappresentate dai dischi gialli e rossi sulla carta.

Puntare il mouse per vedere il nome della stazione.

Clicca sopra per visualizzare le osservazioni e previsioni meteorologiche.

Per cambiare la mappa : fare clic sui pulsanti verdi con una croce nera per ingrandire, il pulsante verde con un trattino per diminuire, o sulla freccia verde per le mappe adiacenti.


METAR-TAF: